Aeroporto :
LOGIN :

Iscrizione | Disclaimer

   EN    FR    IT 

 










Sommario :    VFR   VFR Marginale   IFR   IFR Intensivo   IFR Molto Intensivo
Visibilità : 
Base nubi : 
>= 8 km
>= 3000ft
5 / 8 km
1000 / 3000 ft
1500m / 5 km
500 / 1000 ft
800 / 1500m
200 / 500 ft
< 800m
< 200 ft
Simboli :   Temporali  Nebbia  Neve Forte  Precipitazioni Forti  Vento > 20 kt
SIGMETs :   Varie  Temporali  Ghiacco  Turbolenza  Onda orograficha  Ceneri Vulcaniche







- Altitudine del aeroporto : 348 ft
- Codice IATA : LDV
- Carte del aeroporto


LFRJ - Landivisiau

ULTIMO METAR :
  • 191200Z AUTO 34011KT 9999 FEW027 BKN120 16/09 Q1011

METARs OBSOLETI :
  • 191130Z AUTO 35012KT 9999 FEW027 BKN110 16/09 Q1011
  • 191100Z AUTO 35010KT 310V020 9999 SCT028 BKN120 16/10 Q1011
  • 191030Z AUTO 35012KT 9999 BKN027 BKN098 BKN120 16/09 Q1011
  • 191000Z AUTO 03011KT 9999 SCT026 SCT100 BKN220 15/09 Q1011
  • 190930Z AUTO 03009KT 9999 SCT023 BKN100 BKN130 15/10 Q1011

Previsioni scadute.
Nessun NOTAM noto per questo aeroporto.



MetMap, La meteo Aeronautica in un colpo d'occhio ! - Copyright ORBIFLY Dicembre 2007 - Disclaimer

ORBIFLY MET'MAP TEAM :

Programmazione e sviluppo : Alexandra Zaïnal
Concezione e sviluppo : Baudouin d'Aumeries
Co-Programmazione e sviluppo : Marc-Olivier Méhu
Supporto tecnico e logistico : Manuel Goepfert
Aiuto per la traduzione : Arnaldo La Scala

Contatto : metmap@orbifly.com




FONTI E CREDITI :

   NOAA